sensor_id;sensor_type;location;lat;lon;timestamp;pressure;altitude;pressure_sealevel;temperature
20058;BMP180;10189;49.546;7.906;2022-12-26T00:01:03;97866.00;;;12.70
20058;BMP180;10189;49.546;7.906;2022-12-26T00:03:30;97874.00;;;12.70
20058;BMP180;10189;49.546;7.906;2022-12-26T00:05:56;97859.00;;;12.60
20058;BMP180;10189;49.546;7.906;2022-12-26T00:08:21;97864.00;;;12.70
20058;BMP180;10189;49.546;7.906;2022-12-26T00:10:47;97850.00;;;12.80
20058;BMP180;10189;49.546;7.906;2022-12-26T00:13:13;97864.00;;;12.80
20058;BMP180;10189;49.546;7.906;2022-12-26T00:15:41;97865.00;;;12.80
20058;BMP180;10189;49.546;7.906;2022-12-26T00:18:07;97857.00;;;12.80
20058;BMP180;10189;49.546;7.906;2022-12-26T00:20:33;97861.00;;;12.70
20058;BMP180;10189;49.546;7.906;2022-12-26T00:22:59;97857.00;;;12.70
20058;BMP180;10189;49.546;7.906;2022-12-26T00:25:25;97853.00;;;12.60
20058;BMP180;10189;49.546;7.906;2022-12-26T00:27:51;97867.00;;;12.70
20058;BMP180;10189;49.546;7.906;2022-12-26T00:30:17;97862.00;;;12.70
20058;BMP180;10189;49.546;7.906;2022-12-26T00:32:43;97867.00;;;12.70
20058;BMP180;10189;49.546;7.906;2022-12-26T00:35:09;97863.00;;;12.70
20058;BMP180;10189;49.546;7.906;2022-12-26T00:37:35;97875.00;;;12.70
20058;BMP180;10189;49.546;7.906;2022-12-26T00:40:02;97874.00;;;12.70
20058;BMP180;10189;49.546;7.906;2022-12-26T00:42:28;97877.00;;;12.80
20058;BMP180;10189;49.546;7.906;2022-12-26T00:44:54;97877.00;;;12.70
20058;BMP180;10189;49.546;7.906;2022-12-26T00:47:20;97872.00;;;12.70
20058;BMP180;10189;49.546;7.906;2022-12-26T00:49:46;97864.00;;;12.70
20058;BMP180;10189;49.546;7.906;2022-12-26T00:52:12;97865.00;;;12.80
20058;BMP180;10189;49.546;7.906;2022-12-26T00:54:38;97848.00;;;12.80
20058;BMP180;10189;49.546;7.906;2022-12-26T00:57:03;97834.00;;;12.80
20058;BMP180;10189;49.546;7.906;2022-12-26T00:59:29;97839.00;;;12.90
20058;BMP180;10189;49.546;7.906;2022-12-26T01:01:55;97855.00;;;12.90
20058;BMP180;10189;49.546;7.906;2022-12-26T01:04:21;97854.00;;;13.00
20058;BMP180;10189;49.546;7.906;2022-12-26T01:06:47;97855.00;;;13.00
20058;BMP180;10189;49.546;7.906;2022-12-26T01:09:12;97853.00;;;13.00
20058;BMP180;10189;49.546;7.906;2022-12-26T01:11:41;97866.00;;;13.00
20058;BMP180;10189;49.546;7.906;2022-12-26T01:14:14;97887.00;;;13.10
20058;BMP180;10189;49.546;7.906;2022-12-26T01:16:42;97892.00;;;13.00
20058;BMP180;10189;49.546;7.906;2022-12-26T01:19:10;97882.00;;;13.00
20058;BMP180;10189;49.546;7.906;2022-12-26T01:21:37;97869.00;;;13.00
20058;BMP180;10189;49.546;7.906;2022-12-26T01:24:04;97885.00;;;13.00
20058;BMP180;10189;49.546;7.906;2022-12-26T01:26:31;97877.00;;;13.00
20058;BMP180;10189;49.546;7.906;2022-12-26T01:28:58;97888.00;;;13.00
20058;BMP180;10189;49.546;7.906;2022-12-26T01:31:24;97876.00;;;13.10
20058;BMP180;10189;49.546;7.906;2022-12-26T01:33:50;97879.00;;;13.10
20058;BMP180;10189;49.546;7.906;2022-12-26T01:36:17;97882.00;;;13.10
20058;BMP180;10189;49.546;7.906;2022-12-26T01:38:44;97890.00;;;13.10
20058;BMP180;10189;49.546;7.906;2022-12-26T01:41:11;97870.00;;;13.20
20058;BMP180;10189;49.546;7.906;2022-12-26T01:46:37;97901.00;;;13.20
20058;BMP180;10189;49.546;7.906;2022-12-26T01:49:33;97928.00;;;13.30
20058;BMP180;10189;49.546;7.906;2022-12-26T01:52:17;97922.00;;;13.20
20058;BMP180;10189;49.546;7.906;2022-12-26T01:54:48;97936.00;;;13.20
20058;BMP180;10189;49.546;7.906;2022-12-26T01:57:41;97926.00;;;13.30
20058;BMP180;10189;49.546;7.906;2022-12-26T02:00:09;97925.00;;;13.20
20058;BMP180;10189;49.546;7.906;2022-12-26T02:02:42;97927.00;;;13.20
20058;BMP180;10189;49.546;7.906;2022-12-26T02:05:45;97911.00;;;13.20
20058;BMP180;10189;49.546;7.906;2022-12-26T02:08:18;97931.00;;;13.20
20058;BMP180;10189;49.546;7.906;2022-12-26T02:11:09;97929.00;;;13.20
20058;BMP180;10189;49.546;7.906;2022-12-26T02:13:38;97958.00;;;13.20
20058;BMP180;10189;49.546;7.906;2022-12-26T02:16:07;97940.00;;;13.20
20058;BMP180;10189;49.546;7.906;2022-12-26T02:18:34;97932.00;;;13.20
20058;BMP180;10189;49.546;7.906;2022-12-26T02:21:52;97927.00;;;13.20
20058;BMP180;10189;49.546;7.906;2022-12-26T02:30:34;97912.00;;;13.10
20058;BMP180;10189;49.546;7.906;2022-12-26T02:38:27;97910.00;;;13.20
20058;BMP180;10189;49.546;7.906;2022-12-26T02:44:20;97918.00;;;13.10
20058;BMP180;10189;49.546;7.906;2022-12-26T02:47:43;97905.00;;;13.10
20058;BMP180;10189;49.546;7.906;2022-12-26T02:50:42;97902.00;;;13.00
20058;BMP180;10189;49.546;7.906;2022-12-26T02:56:35;97899.00;;;13.00
20058;BMP180;10189;49.546;7.906;2022-12-26T03:05:50;97897.00;;;13.00
20058;BMP180;10189;49.546;7.906;2022-12-26T03:08:57;97891.00;;;13.00
20058;BMP180;10189;49.546;7.906;2022-12-26T03:11:49;97871.00;;;12.90
20058;BMP180;10189;49.546;7.906;2022-12-26T03:14:49;97875.00;;;12.90
20058;BMP180;10189;49.546;7.906;2022-12-26T03:17:42;97871.00;;;13.10
20058;BMP180;10189;49.546;7.906;2022-12-26T03:20:15;97905.00;;;12.90
20058;BMP180;10189;49.546;7.906;2022-12-26T03:25:41;97904.00;;;13.00
20058;BMP180;10189;49.546;7.906;2022-12-26T03:28:28;97920.00;;;13.00
20058;BMP180;10189;49.546;7.906;2022-12-26T03:30:58;97920.00;;;13.00
20058;BMP180;10189;49.546;7.906;2022-12-26T03:33:32;97898.00;;;13.00
20058;BMP180;10189;49.546;7.906;2022-12-26T03:43:16;97913.00;;;13.00
20058;BMP180;10189;49.546;7.906;2022-12-26T03:49:21;97915.00;;;12.90
20058;BMP180;10189;49.546;7.906;2022-12-26T03:52:31;97916.00;;;12.90
20058;BMP180;10189;49.546;7.906;2022-12-26T03:55:34;97916.00;;;12.90
20058;BMP180;10189;49.546;7.906;2022-12-26T04:01:22;97935.00;;;12.80
20058;BMP180;10189;49.546;7.906;2022-12-26T04:04:10;97935.00;;;12.80
20058;BMP180;10189;49.546;7.906;2022-12-26T04:07:32;97942.00;;;12.80
20058;BMP180;10189;49.546;7.906;2022-12-26T04:10:47;97929.00;;;12.80
20058;BMP180;10189;49.546;7.906;2022-12-26T04:14:00;97939.00;;;12.70
20058;BMP180;10189;49.546;7.906;2022-12-26T04:20:37;97924.00;;;12.60
20058;BMP180;10189;49.546;7.906;2022-12-26T04:26:09;97946.00;;;12.60
20058;BMP180;10189;49.546;7.906;2022-12-26T04:28:55;97940.00;;;12.60
20058;BMP180;10189;49.546;7.906;2022-12-26T04:31:56;97932.00;;;12.70
20058;BMP180;10189;49.546;7.906;2022-12-26T04:35:03;97930.00;;;12.80
20058;BMP180;10189;49.546;7.906;2022-12-26T04:37:51;97934.00;;;12.90
20058;BMP180;10189;49.546;7.906;2022-12-26T04:40:45;97938.00;;;13.00
20058;BMP180;10189;49.546;7.906;2022-12-26T04:43:33;97944.00;;;13.00
20058;BMP180;10189;49.546;7.906;2022-12-26T04:46:20;97931.00;;;13.00
20058;BMP180;10189;49.546;7.906;2022-12-26T04:48:50;97938.00;;;13.10
20058;BMP180;10189;49.546;7.906;2022-12-26T04:51:35;97965.00;;;13.20
20058;BMP180;10189;49.546;7.906;2022-12-26T04:54:01;97950.00;;;13.20
20058;BMP180;10189;49.546;7.906;2022-12-26T04:56:27;97934.00;;;13.30
20058;BMP180;10189;49.546;7.906;2022-12-26T04:58:53;97928.00;;;13.40
20058;BMP180;10189;49.546;7.906;2022-12-26T05:01:19;97933.00;;;13.30
20058;BMP180;10189;49.546;7.906;2022-12-26T05:04:03;97933.00;;;13.30
20058;BMP180;10189;49.546;7.906;2022-12-26T05:06:48;97934.00;;;13.30
20058;BMP180;10189;49.546;7.906;2022-12-26T05:09:33;97938.00;;;13.20
20058;BMP180;10189;49.546;7.906;2022-12-26T05:12:06;97923.00;;;13.20
20058;BMP180;10189;49.546;7.906;2022-12-26T05:14:34;97939.00;;;13.10
20058;BMP180;10189;49.546;7.906;2022-12-26T05:17:05;97945.00;;;13.00
20058;BMP180;10189;49.546;7.906;2022-12-26T05:19:50;97946.00;;;13.00
20058;BMP180;10189;49.546;7.906;2022-12-26T05:22:42;97944.00;;;13.10
20058;BMP180;10189;49.546;7.906;2022-12-26T05:25:36;97959.00;;;13.20
20058;BMP180;10189;49.546;7.906;2022-12-26T05:28:22;97947.00;;;13.20
20058;BMP180;10189;49.546;7.906;2022-12-26T05:31:12;97942.00;;;13.30
20058;BMP180;10189;49.546;7.906;2022-12-26T05:33:39;97927.00;;;13.40
20058;BMP180;10189;49.546;7.906;2022-12-26T05:36:29;97932.00;;;13.40
20058;BMP180;10189;49.546;7.906;2022-12-26T05:38:56;97932.00;;;13.40
20058;BMP180;10189;49.546;7.906;2022-12-26T05:41:22;97939.00;;;13.30
20058;BMP180;10189;49.546;7.906;2022-12-26T05:43:49;97936.00;;;13.40
20058;BMP180;10189;49.546;7.906;2022-12-26T05:46:14;97952.00;;;13.30
20058;BMP180;10189;49.546;7.906;2022-12-26T05:48:40;97955.00;;;13.30
20058;BMP180;10189;49.546;7.906;2022-12-26T05:51:07;97958.00;;;13.30
20058;BMP180;10189;49.546;7.906;2022-12-26T05:53:33;97960.00;;;13.30
20058;BMP180;10189;49.546;7.906;2022-12-26T05:56:09;97964.00;;;13.30
20058;BMP180;10189;49.546;7.906;2022-12-26T05:58:35;97964.00;;;13.30
20058;BMP180;10189;49.546;7.906;2022-12-26T06:01:09;97957.00;;;13.40
20058;BMP180;10189;49.546;7.906;2022-12-26T06:03:36;97953.00;;;13.50
20058;BMP180;10189;49.546;7.906;2022-12-26T06:06:04;97949.00;;;13.40
20058;BMP180;10189;49.546;7.906;2022-12-26T06:08:30;97944.00;;;13.40
20058;BMP180;10189;49.546;7.906;2022-12-26T06:10:56;97961.00;;;13.40
20058;BMP180;10189;49.546;7.906;2022-12-26T06:13:23;97978.00;;;13.30
20058;BMP180;10189;49.546;7.906;2022-12-26T06:15:49;97969.00;;;13.30
20058;BMP180;10189;49.546;7.906;2022-12-26T06:18:14;97977.00;;;13.30
20058;BMP180;10189;49.546;7.906;2022-12-26T06:20:40;97974.00;;;13.30
20058;BMP180;10189;49.546;7.906;2022-12-26T06:23:06;97978.00;;;13.10
20058;BMP180;10189;49.546;7.906;2022-12-26T06:25:33;97978.00;;;13.10
20058;BMP180;10189;49.546;7.906;2022-12-26T06:27:58;97983.00;;;13.10
20058;BMP180;10189;49.546;7.906;2022-12-26T06:30:24;97982.00;;;13.10
20058;BMP180;10189;49.546;7.906;2022-12-26T06:32:52;97983.00;;;13.00
20058;BMP180;10189;49.546;7.906;2022-12-26T06:35:18;97962.00;;;13.00
20058;BMP180;10189;49.546;7.906;2022-12-26T06:37:44;97970.00;;;13.00
20058;BMP180;10189;49.546;7.906;2022-12-26T06:40:10;97969.00;;;12.90
20058;BMP180;10189;49.546;7.906;2022-12-26T06:42:36;97970.00;;;12.80
20058;BMP180;10189;49.546;7.906;2022-12-26T06:45:01;97990.00;;;12.70
20058;BMP180;10189;49.546;7.906;2022-12-26T06:47:28;97983.00;;;12.70
20058;BMP180;10189;49.546;7.906;2022-12-26T06:49:54;98002.00;;;12.70
20058;BMP180;10189;49.546;7.906;2022-12-26T06:52:19;97997.00;;;12.70
20058;BMP180;10189;49.546;7.906;2022-12-26T06:54:45;98003.00;;;12.70
20058;BMP180;10189;49.546;7.906;2022-12-26T06:57:11;98002.00;;;12.60
20058;BMP180;10189;49.546;7.906;2022-12-26T06:59:37;98003.00;;;12.70
20058;BMP180;10189;49.546;7.906;2022-12-26T07:02:03;98002.00;;;12.60
20058;BMP180;10189;49.546;7.906;2022-12-26T07:04:28;98008.00;;;12.60
20058;BMP180;10189;49.546;7.906;2022-12-26T07:06:54;98017.00;;;12.60
20058;BMP180;10189;49.546;7.906;2022-12-26T07:09:20;98024.00;;;12.50
20058;BMP180;10189;49.546;7.906;2022-12-26T07:11:49;98029.00;;;12.60
20058;BMP180;10189;49.546;7.906;2022-12-26T07:14:15;98024.00;;;12.60
20058;BMP180;10189;49.546;7.906;2022-12-26T07:16:43;98038.00;;;12.60
20058;BMP180;10189;49.546;7.906;2022-12-26T07:19:11;98035.00;;;12.70
20058;BMP180;10189;49.546;7.906;2022-12-26T07:21:38;98052.00;;;12.70
20058;BMP180;10189;49.546;7.906;2022-12-26T07:24:04;98050.00;;;12.70
20058;BMP180;10189;49.546;7.906;2022-12-26T07:26:30;98047.00;;;12.60
20058;BMP180;10189;49.546;7.906;2022-12-26T07:28:57;98043.00;;;12.70
20058;BMP180;10189;49.546;7.906;2022-12-26T07:31:25;98046.00;;;12.70
20058;BMP180;10189;49.546;7.906;2022-12-26T07:33:54;98043.00;;;12.70
20058;BMP180;10189;49.546;7.906;2022-12-26T07:36:23;98041.00;;;12.70
20058;BMP180;10189;49.546;7.906;2022-12-26T07:38:52;98044.00;;;12.70
20058;BMP180;10189;49.546;7.906;2022-12-26T07:41:18;98042.00;;;12.60
20058;BMP180;10189;49.546;7.906;2022-12-26T07:44:04;98027.00;;;12.60
20058;BMP180;10189;49.546;7.906;2022-12-26T07:46:31;98041.00;;;12.60
20058;BMP180;10189;49.546;7.906;2022-12-26T07:48:57;98040.00;;;12.60
20058;BMP180;10189;49.546;7.906;2022-12-26T07:51:23;98027.00;;;12.60
20058;BMP180;10189;49.546;7.906;2022-12-26T07:53:49;98054.00;;;12.60
20058;BMP180;10189;49.546;7.906;2022-12-26T07:56:15;98056.00;;;12.60
20058;BMP180;10189;49.546;7.906;2022-12-26T07:58:41;98058.00;;;12.70
20058;BMP180;10189;49.546;7.906;2022-12-26T08:01:07;98058.00;;;12.60
20058;BMP180;10189;49.546;7.906;2022-12-26T08:03:33;98069.00;;;12.60
20058;BMP180;10189;49.546;7.906;2022-12-26T08:06:00;98077.00;;;12.60
20058;BMP180;10189;49.546;7.906;2022-12-26T08:08:26;98071.00;;;12.60
20058;BMP180;10189;49.546;7.906;2022-12-26T08:11:03;98074.00;;;12.50
20058;BMP180;10189;49.546;7.906;2022-12-26T08:13:30;98078.00;;;12.50
20058;BMP180;10189;49.546;7.906;2022-12-26T08:15:57;98081.00;;;12.60
20058;BMP180;10189;49.546;7.906;2022-12-26T08:18:24;98089.00;;;12.60
20058;BMP180;10189;49.546;7.906;2022-12-26T08:20:50;98099.00;;;12.70
20058;BMP180;10189;49.546;7.906;2022-12-26T08:23:16;98088.00;;;12.60
20058;BMP180;10189;49.546;7.906;2022-12-26T08:25:42;98075.00;;;12.60
20058;BMP180;10189;49.546;7.906;2022-12-26T08:28:08;98077.00;;;12.60
20058;BMP180;10189;49.546;7.906;2022-12-26T08:30:34;98074.00;;;12.50
20058;BMP180;10189;49.546;7.906;2022-12-26T08:33:02;98069.00;;;12.50
20058;BMP180;10189;49.546;7.906;2022-12-26T08:35:28;98065.00;;;12.60
20058;BMP180;10189;49.546;7.906;2022-12-26T08:37:54;98075.00;;;12.50
20058;BMP180;10189;49.546;7.906;2022-12-26T08:40:20;98083.00;;;12.50
20058;BMP180;10189;49.546;7.906;2022-12-26T08:42:46;98073.00;;;12.50
20058;BMP180;10189;49.546;7.906;2022-12-26T08:45:12;98053.00;;;12.50
20058;BMP180;10189;49.546;7.906;2022-12-26T08:47:38;98058.00;;;12.60
20058;BMP180;10189;49.546;7.906;2022-12-26T08:50:04;98060.00;;;12.50
20058;BMP180;10189;49.546;7.906;2022-12-26T08:52:30;98067.00;;;12.50
20058;BMP180;10189;49.546;7.906;2022-12-26T08:54:56;98072.00;;;12.50
20058;BMP180;10189;49.546;7.906;2022-12-26T08:57:22;98087.00;;;12.50
20058;BMP180;10189;49.546;7.906;2022-12-26T08:59:48;98107.00;;;12.60
20058;BMP180;10189;49.546;7.906;2022-12-26T09:02:14;98118.00;;;12.60
20058;BMP180;10189;49.546;7.906;2022-12-26T09:04:40;98144.00;;;12.50
20058;BMP180;10189;49.546;7.906;2022-12-26T09:07:07;98142.00;;;12.50
20058;BMP180;10189;49.546;7.906;2022-12-26T09:09:34;98139.00;;;12.50
20058;BMP180;10189;49.546;7.906;2022-12-26T09:12:00;98134.00;;;12.50
20058;BMP180;10189;49.546;7.906;2022-12-26T09:14:26;98118.00;;;12.50
20058;BMP180;10189;49.546;7.906;2022-12-26T09:16:52;98117.00;;;12.50
20058;BMP180;10189;49.546;7.906;2022-12-26T09:19:20;98115.00;;;12.40
20058;BMP180;10189;49.546;7.906;2022-12-26T09:21:48;98107.00;;;12.50
20058;BMP180;10189;49.546;7.906;2022-12-26T09:24:34;98117.00;;;12.60
20058;BMP180;10189;49.546;7.906;2022-12-26T09:27:00;98140.00;;;12.60
20058;BMP180;10189;49.546;7.906;2022-12-26T09:29:26;98142.00;;;12.60
20058;BMP180;10189;49.546;7.906;2022-12-26T09:31:54;98154.00;;;12.60
20058;BMP180;10189;49.546;7.906;2022-12-26T09:34:20;98150.00;;;12.70
20058;BMP180;10189;49.546;7.906;2022-12-26T09:36:46;98157.00;;;12.70
20058;BMP180;10189;49.546;7.906;2022-12-26T09:39:11;98160.00;;;12.70
20058;BMP180;10189;49.546;7.906;2022-12-26T09:45:26;98157.00;;;12.80
20058;BMP180;10189;49.546;7.906;2022-12-26T09:48:33;98138.00;;;12.80
20058;BMP180;10189;49.546;7.906;2022-12-26T09:51:02;98125.00;;;12.80
20058;BMP180;10189;49.546;7.906;2022-12-26T09:53:42;98130.00;;;12.80
20058;BMP180;10189;49.546;7.906;2022-12-26T09:56:18;98139.00;;;12.80
20058;BMP180;10189;49.546;7.906;2022-12-26T09:58:52;98120.00;;;12.90
20058;BMP180;10189;49.546;7.906;2022-12-26T10:01:24;98115.00;;;13.00
20058;BMP180;10189;49.546;7.906;2022-12-26T10:03:53;98131.00;;;13.00
20058;BMP180;10189;49.546;7.906;2022-12-26T10:06:33;98135.00;;;12.90
20058;BMP180;10189;49.546;7.906;2022-12-26T10:09:40;98137.00;;;13.00
20058;BMP180;10189;49.546;7.906;2022-12-26T10:20:25;98153.00;;;13.30
20058;BMP180;10189;49.546;7.906;2022-12-26T10:23:33;98144.00;;;13.50
20058;BMP180;10189;49.546;7.906;2022-12-26T10:26:13;98165.00;;;13.50
20058;BMP180;10189;49.546;7.906;2022-12-26T10:29:09;98153.00;;;13.60
20058;BMP180;10189;49.546;7.906;2022-12-26T10:31:56;98144.00;;;13.60
20058;BMP180;10189;49.546;7.906;2022-12-26T10:34:33;98143.00;;;13.60
20058;BMP180;10189;49.546;7.906;2022-12-26T10:37:17;98140.00;;;13.60
20058;BMP180;10189;49.546;7.906;2022-12-26T10:42:41;98124.00;;;13.50
20058;BMP180;10189;49.546;7.906;2022-12-26T10:45:35;98137.00;;;13.50
20058;BMP180;10189;49.546;7.906;2022-12-26T10:48:06;98148.00;;;13.60
20058;BMP180;10189;49.546;7.906;2022-12-26T10:50:34;98147.00;;;13.60
20058;BMP180;10189;49.546;7.906;2022-12-26T10:53:05;98157.00;;;13.60
20058;BMP180;10189;49.546;7.906;2022-12-26T10:55:33;98156.00;;;13.60
20058;BMP180;10189;49.546;7.906;2022-12-26T11:00:38;98156.00;;;13.50
20058;BMP180;10189;49.546;7.906;2022-12-26T11:03:17;98153.00;;;13.40
20058;BMP180;10189;49.546;7.906;2022-12-26T11:05:50;98162.00;;;13.20
20058;BMP180;10189;49.546;7.906;2022-12-26T11:11:05;98168.00;;;12.90
20058;BMP180;10189;49.546;7.906;2022-12-26T11:13:38;98168.00;;;12.80
20058;BMP180;10189;49.546;7.906;2022-12-26T11:16:07;98184.00;;;12.90
20058;BMP180;10189;49.546;7.906;2022-12-26T11:18:38;98168.00;;;12.90
20058;BMP180;10189;49.546;7.906;2022-12-26T11:21:32;98172.00;;;13.10
20058;BMP180;10189;49.546;7.906;2022-12-26T11:26:33;98183.00;;;13.20
20058;BMP180;10189;49.546;7.906;2022-12-26T11:29:19;98172.00;;;13.40
20058;BMP180;10189;49.546;7.906;2022-12-26T11:32:03;98175.00;;;13.40
20058;BMP180;10189;49.546;7.906;2022-12-26T11:34:39;98167.00;;;13.50
20058;BMP180;10189;49.546;7.906;2022-12-26T11:37:32;98172.00;;;13.40
20058;BMP180;10189;49.546;7.906;2022-12-26T11:40:00;98163.00;;;13.40
20058;BMP180;10189;49.546;7.906;2022-12-26T11:42:27;98156.00;;;13.50
20058;BMP180;10189;49.546;7.906;2022-12-26T11:44:55;98165.00;;;13.70
20058;BMP180;10189;49.546;7.906;2022-12-26T11:47:26;98176.00;;;13.60
20058;BMP180;10189;49.546;7.906;2022-12-26T11:52:45;98174.00;;;13.30
20058;BMP180;10189;49.546;7.906;2022-12-26T12:01:23;98169.00;;;13.40
20058;BMP180;10189;49.546;7.906;2022-12-26T12:03:48;98171.00;;;13.40
20058;BMP180;10189;49.546;7.906;2022-12-26T12:06:58;98156.00;;;13.40
20058;BMP180;10189;49.546;7.906;2022-12-26T12:09:46;98161.00;;;13.20
20058;BMP180;10189;49.546;7.906;2022-12-26T12:18:21;98149.00;;;13.60
20058;BMP180;10189;49.546;7.906;2022-12-26T12:21:23;98147.00;;;13.80
20058;BMP180;10189;49.546;7.906;2022-12-26T12:26:58;98143.00;;;13.70
20058;BMP180;10189;49.546;7.906;2022-12-26T12:30:14;98140.00;;;13.70
20058;BMP180;10189;49.546;7.906;2022-12-26T12:33:05;98125.00;;;13.70
20058;BMP180;10189;49.546;7.906;2022-12-26T12:36:10;98135.00;;;13.70
20058;BMP180;10189;49.546;7.906;2022-12-26T12:47:43;98133.00;;;13.80
20058;BMP180;10189;49.546;7.906;2022-12-26T12:50:48;98129.00;;;13.80
20058;BMP180;10189;49.546;7.906;2022-12-26T12:56:47;98134.00;;;13.60
20058;BMP180;10189;49.546;7.906;2022-12-26T13:02:33;98129.00;;;13.40
20058;BMP180;10189;49.546;7.906;2022-12-26T13:08:23;98151.00;;;13.30
20058;BMP180;10189;49.546;7.906;2022-12-26T13:11:48;98141.00;;;13.10
20058;BMP180;10189;49.546;7.906;2022-12-26T13:13:53;98151.00;;;13.00
20058;BMP180;10189;49.546;7.906;2022-12-26T13:16:39;98151.00;;;12.90
20058;BMP180;10189;49.546;7.906;2022-12-26T13:19:21;98159.00;;;12.70
20058;BMP180;10189;49.546;7.906;2022-12-26T13:21:51;98161.00;;;12.50
20058;BMP180;10189;49.546;7.906;2022-12-26T13:24:42;98155.00;;;12.60
20058;BMP180;10189;49.546;7.906;2022-12-26T13:27:35;98160.00;;;12.50
20058;BMP180;10189;49.546;7.906;2022-12-26T13:30:15;98150.00;;;12.50
20058;BMP180;10189;49.546;7.906;2022-12-26T13:32:43;98149.00;;;12.50
20058;BMP180;10189;49.546;7.906;2022-12-26T13:35:55;98147.00;;;12.50
20058;BMP180;10189;49.546;7.906;2022-12-26T13:38:23;98140.00;;;12.60
20058;BMP180;10189;49.546;7.906;2022-12-26T13:41:01;98148.00;;;12.70
20058;BMP180;10189;49.546;7.906;2022-12-26T13:44:07;98150.00;;;12.60
20058;BMP180;10189;49.546;7.906;2022-12-26T13:49:37;98136.00;;;12.70
20058;BMP180;10189;49.546;7.906;2022-12-26T14:00:18;98128.00;;;12.70
20058;BMP180;10189;49.546;7.906;2022-12-26T14:03:32;98121.00;;;12.70
20058;BMP180;10189;49.546;7.906;2022-12-26T14:09:39;98121.00;;;12.70
20058;BMP180;10189;49.546;7.906;2022-12-26T14:15:52;98126.00;;;12.70
20058;BMP180;10189;49.546;7.906;2022-12-26T14:18:32;98134.00;;;12.70
20058;BMP180;10189;49.546;7.906;2022-12-26T14:26:54;98133.00;;;12.60
20058;BMP180;10189;49.546;7.906;2022-12-26T14:29:44;98131.00;;;12.60
20058;BMP180;10189;49.546;7.906;2022-12-26T14:32:57;98127.00;;;12.60
20058;BMP180;10189;49.546;7.906;2022-12-26T14:35:37;98138.00;;;12.60
20058;BMP180;10189;49.546;7.906;2022-12-26T14:38:36;98147.00;;;12.60
20058;BMP180;10189;49.546;7.906;2022-12-26T14:41:11;98137.00;;;12.60
20058;BMP180;10189;49.546;7.906;2022-12-26T14:46:59;98140.00;;;12.50
20058;BMP180;10189;49.546;7.906;2022-12-26T14:54:54;98146.00;;;12.50
20058;BMP180;10189;49.546;7.906;2022-12-26T14:57:46;98138.00;;;12.50
20058;BMP180;10189;49.546;7.906;2022-12-26T15:05:33;98147.00;;;12.60
20058;BMP180;10189;49.546;7.906;2022-12-26T15:31:49;98169.00;;;12.40
20058;BMP180;10189;49.546;7.906;2022-12-26T15:37:54;98176.00;;;12.30
20058;BMP180;10189;49.546;7.906;2022-12-26T15:48:55;98175.00;;;11.80
20058;BMP180;10189;49.546;7.906;2022-12-26T15:52:04;98191.00;;;11.80
20058;BMP180;10189;49.546;7.906;2022-12-26T15:55:16;98182.00;;;11.80
20058;BMP180;10189;49.546;7.906;2022-12-26T15:58:05;98187.00;;;11.70
20058;BMP180;10189;49.546;7.906;2022-12-26T16:00:50;98198.00;;;11.70
20058;BMP180;10189;49.546;7.906;2022-12-26T16:03:31;98196.00;;;11.60
20058;BMP180;10189;49.546;7.906;2022-12-26T16:08:59;98209.00;;;11.50
20058;BMP180;10189;49.546;7.906;2022-12-26T16:11:43;98209.00;;;11.40
20058;BMP180;10189;49.546;7.906;2022-12-26T16:14:33;98203.00;;;11.30
20058;BMP180;10189;49.546;7.906;2022-12-26T16:19:58;98214.00;;;11.10
20058;BMP180;10189;49.546;7.906;2022-12-26T16:25:25;98225.00;;;11.00
20058;BMP180;10189;49.546;7.906;2022-12-26T16:27:54;98218.00;;;10.90
20058;BMP180;10189;49.546;7.906;2022-12-26T16:30:26;98216.00;;;10.80
20058;BMP180;10189;49.546;7.906;2022-12-26T16:32:53;98228.00;;;10.80
20058;BMP180;10189;49.546;7.906;2022-12-26T16:35:35;98224.00;;;10.70
20058;BMP180;10189;49.546;7.906;2022-12-26T16:38:06;98240.00;;;10.60
20058;BMP180;10189;49.546;7.906;2022-12-26T16:40:45;98237.00;;;10.60
20058;BMP180;10189;49.546;7.906;2022-12-26T16:45:50;98237.00;;;10.50
20058;BMP180;10189;49.546;7.906;2022-12-26T16:48:22;98263.00;;;10.50
20058;BMP180;10189;49.546;7.906;2022-12-26T16:50:58;98268.00;;;10.50
20058;BMP180;10189;49.546;7.906;2022-12-26T16:53:42;98298.00;;;10.50
20058;BMP180;10189;49.546;7.906;2022-12-26T16:56:29;98294.00;;;10.50
20058;BMP180;10189;49.546;7.906;2022-12-26T16:59:35;98324.00;;;10.30
20058;BMP180;10189;49.546;7.906;2022-12-26T17:02:03;98330.00;;;10.10
20058;BMP180;10189;49.546;7.906;2022-12-26T17:04:30;98333.00;;;10.00
20058;BMP180;10189;49.546;7.906;2022-12-26T17:07:02;98326.00;;;9.80
20058;BMP180;10189;49.546;7.906;2022-12-26T17:09:39;98323.00;;;9.70
20058;BMP180;10189;49.546;7.906;2022-12-26T17:12:29;98312.00;;;9.70
20058;BMP180;10189;49.546;7.906;2022-12-26T17:14:59;98306.00;;;9.60
20058;BMP180;10189;49.546;7.906;2022-12-26T17:17:29;98324.00;;;9.60
20058;BMP180;10189;49.546;7.906;2022-12-26T17:20:08;98317.00;;;9.60
20058;BMP180;10189;49.546;7.906;2022-12-26T17:22:43;98323.00;;;9.60
20058;BMP180;10189;49.546;7.906;2022-12-26T17:28:21;98323.00;;;9.60
20058;BMP180;10189;49.546;7.906;2022-12-26T17:30:49;98331.00;;;9.60
20058;BMP180;10189;49.546;7.906;2022-12-26T17:33:26;98333.00;;;9.70
20058;BMP180;10189;49.546;7.906;2022-12-26T17:36:05;98344.00;;;9.70
20058;BMP180;10189;49.546;7.906;2022-12-26T17:38:36;98352.00;;;9.60
20058;BMP180;10189;49.546;7.906;2022-12-26T17:41:05;98357.00;;;9.60
20058;BMP180;10189;49.546;7.906;2022-12-26T17:43:36;98361.00;;;9.60
20058;BMP180;10189;49.546;7.906;2022-12-26T17:46:05;98356.00;;;9.60
20058;BMP180;10189;49.546;7.906;2022-12-26T17:48:33;98354.00;;;9.60
20058;BMP180;10189;49.546;7.906;2022-12-26T17:51:05;98349.00;;;9.60
20058;BMP180;10189;49.546;7.906;2022-12-26T17:53:35;98355.00;;;9.50
20058;BMP180;10189;49.546;7.906;2022-12-26T17:56:04;98349.00;;;9.50
20058;BMP180;10189;49.546;7.906;2022-12-26T17:58:32;98357.00;;;9.50
20058;BMP180;10189;49.546;7.906;2022-12-26T18:00:58;98366.00;;;9.50
20058;BMP180;10189;49.546;7.906;2022-12-26T18:03:25;98348.00;;;9.40
20058;BMP180;10189;49.546;7.906;2022-12-26T18:05:53;98356.00;;;9.40
20058;BMP180;10189;49.546;7.906;2022-12-26T18:08:31;98350.00;;;9.30
20058;BMP180;10189;49.546;7.906;2022-12-26T18:11:01;98354.00;;;9.30
20058;BMP180;10189;49.546;7.906;2022-12-26T18:13:27;98358.00;;;9.20